Main page
METAR-TAF:

METAR-TAF

Airports :

Inverness, Scotland

Inverness Airport

latitude: 57-32N, longitude: 004-03W, elevation: 9 m

Current weather observation

The report was made 21 minutes ago, at 23:50 UTC
Wind 1 kt from the Northeast
Temperature 7°C
Humidity 100%
Pressure 1013 hPa
Visibility 10 km or more

METAR: EGPE 192350Z AUTO 04001KT 9999 NCD 07/07 Q1013

Time: 01:11 (00:11 UTC)

Forecast

The report was made 1 hour and 12 minutes ago, at 22:59 UTC
Forecast valid from 20 at 00 UTC to 20 at 09 UTC
Wind 2 kt from variable directions
Visibility 10 km or more
Few clouds at a height of 4000 ft
Probability 30% :
Temporary
from 20 at 06 UTC to 20 at 09 UTC
Visibility: 7000 m
rain

TAF: EGPE 192259Z 2000/2009 VRB02KT 9999 FEW040 PROB30 TEMPO 2006/2009 7000 RA

Weather observations and forecasts of more than 4000 airports (METAR and TAF reports).

The available stations are represented by yellow and red dots on the map.

Hover mouse over dot to see the name of the station.

Then click to see weather observations and forecasts.

To change the map : click on the green buttons with a black cross to zoom in, on the green button with a dash to zoom out, or on the green arrows for adjacent maps.


METAR-TAF: